createdAt,value
2023-03-17T00:01:55.860Z,100987.19
2023-03-17T00:04:24.966Z,101011.09
2023-03-17T00:06:52.891Z,101002.22
2023-03-17T00:09:20.857Z,100982.03
2023-03-17T00:11:47.873Z,100978.50
2023-03-17T00:14:14.958Z,100988.34
2023-03-17T00:16:49.799Z,101005.25
2023-03-17T00:19:21.670Z,101000.88
2023-03-17T00:21:49.726Z,101008.91
2023-03-17T00:24:17.143Z,101005.44
2023-03-17T00:26:43.899Z,100990.50
2023-03-17T00:29:10.988Z,100979.91
2023-03-17T00:31:39.522Z,100988.78
2023-03-17T00:34:07.791Z,100977.28
2023-03-17T00:36:35.528Z,100980.91
2023-03-17T00:39:02.121Z,100978.28
2023-03-17T00:41:29.478Z,100981.84
2023-03-17T00:43:56.178Z,100983.69
2023-03-17T00:46:35.709Z,100981.94
2023-03-17T00:49:12.274Z,100976.69
2023-03-17T00:51:39.359Z,100971.44
2023-03-17T00:54:06.824Z,100975.91
2023-03-17T00:56:33.483Z,100980.31
2023-03-17T00:59:00.149Z,100985.69
2023-03-17T01:01:26.824Z,100985.72
2023-03-17T01:03:53.432Z,100969.91
2023-03-17T01:06:20.129Z,100964.59
2023-03-17T01:08:47.395Z,100947.84
2023-03-17T01:11:18.728Z,100939.84
2023-03-17T01:13:46.490Z,100939.88
2023-03-17T01:16:13.939Z,100937.31
2023-03-17T01:18:40.786Z,100939.03
2023-03-17T01:21:07.851Z,100951.50
2023-03-17T01:23:34.448Z,100963.72
2023-03-17T01:26:01.570Z,100961.09
2023-03-17T01:28:28.974Z,100956.69
2023-03-17T01:30:56.691Z,100952.34
2023-03-17T01:33:23.394Z,100947.03
2023-03-17T01:35:51.346Z,100947.84
2023-03-17T01:38:18.811Z,100948.81
2023-03-17T01:40:49.700Z,100951.47
2023-03-17T01:43:25.887Z,100953.22
2023-03-17T01:46:14.815Z,100940.88
2023-03-17T01:48:47.418Z,100936.47
2023-03-17T01:51:24.742Z,100934.75
2023-03-17T01:53:53.575Z,100943.59
2023-03-17T01:56:21.596Z,100935.75
2023-03-17T01:58:53.743Z,100934.94
2023-03-17T02:01:29.106Z,100929.72
2023-03-17T02:03:56.984Z,100929.72
2023-03-17T02:06:25.619Z,100914.78
2023-03-17T02:08:52.197Z,100913.97
2023-03-17T02:11:21.006Z,100909.56
2023-03-17T02:13:47.788Z,100908.72
2023-03-17T02:16:18.121Z,100903.50
2023-03-17T02:18:44.995Z,100911.47
2023-03-17T02:21:35.329Z,100900.09
2023-03-17T02:24:08.460Z,100904.53
2023-03-17T02:26:36.650Z,100907.22
2023-03-17T02:29:05.993Z,100909.94
2023-03-17T02:31:33.459Z,100910.91
2023-03-17T02:34:00.453Z,100907.44
2023-03-17T02:36:27.532Z,100891.53
2023-03-17T02:38:54.642Z,100896.84
2023-03-17T02:41:21.774Z,100895.97
2023-03-17T02:43:48.405Z,100898.59
2023-03-17T02:46:15.117Z,100890.66
2023-03-17T02:48:42.897Z,100886.31
2023-03-17T02:51:09.536Z,100881.84
2023-03-17T02:53:36.616Z,100891.53
2023-03-17T02:56:03.740Z,100889.78
2023-03-17T02:58:30.372Z,100890.63
2023-03-17T03:00:56.920Z,100902.97
2023-03-17T03:03:23.773Z,100903.81
2023-03-17T03:05:50.921Z,100904.63
2023-03-17T03:08:17.624Z,100911.72
2023-03-17T03:10:44.264Z,100902.06
2023-03-17T03:13:11.673Z,100902.81
2023-03-17T03:15:41.312Z,100893.13
2023-03-17T03:18:08.194Z,100900.13
2023-03-17T03:20:34.786Z,100897.53
2023-03-17T03:23:01.353Z,100885.19
2023-03-17T03:25:27.969Z,100892.19
2023-03-17T03:27:54.530Z,100886.88
2023-03-17T03:30:21.163Z,100885.97
2023-03-17T03:32:47.787Z,100898.34
2023-03-17T03:35:14.903Z,100900.97
2023-03-17T03:37:41.568Z,100907.91
2023-03-17T03:40:09.112Z,100899.97
2023-03-17T03:42:35.647Z,100895.56
2023-03-17T03:45:02.210Z,100906.13
2023-03-17T03:47:28.800Z,100903.44
2023-03-17T03:49:55.481Z,100913.97
2023-03-17T03:52:21.988Z,100895.47
2023-03-17T03:54:48.596Z,100904.19
2023-03-17T03:57:15.391Z,100906.03
2023-03-17T03:59:42.053Z,100898.97
2023-03-17T04:02:09.691Z,100896.38
2023-03-17T04:04:36.955Z,100898.97
2023-03-17T04:07:03.568Z,100888.31
2023-03-17T04:09:30.238Z,100896.19
2023-03-17T04:11:56.745Z,100897.97
2023-03-17T04:14:23.279Z,100899.69
2023-03-17T04:16:49.785Z,100909.38
2023-03-17T04:19:16.430Z,100903.19
2023-03-17T04:21:43.102Z,100921.69
2023-03-17T04:24:09.750Z,100920.72
2023-03-17T04:26:36.996Z,100911.00
2023-03-17T04:29:03.533Z,100908.31
2023-03-17T04:31:30.720Z,100916.28
2023-03-17T04:33:57.233Z,100912.75
2023-03-17T04:36:24.268Z,100909.16
2023-03-17T04:38:50.830Z,100911.78
2023-03-17T04:41:17.415Z,100898.53
2023-03-17T04:43:44.808Z,100897.63
2023-03-17T04:46:11.687Z,100911.66
2023-03-17T04:48:38.630Z,100922.25
2023-03-17T04:51:06.065Z,100910.84
2023-03-17T04:53:32.698Z,100920.47
2023-03-17T04:55:59.282Z,100915.97
2023-03-17T04:58:30.718Z,100914.16
2023-03-17T05:00:58.280Z,100915.03
2023-03-17T05:03:27.567Z,100919.44
2023-03-17T05:05:55.491Z,100913.25
2023-03-17T05:08:22.298Z,100907.00
2023-03-17T05:10:48.882Z,100916.69
2023-03-17T05:13:15.972Z,100915.81
2023-03-17T05:15:50.558Z,100922.84
2023-03-17T05:18:18.392Z,100926.41
2023-03-17T05:20:45.520Z,100930.78
2023-03-17T05:23:12.287Z,100921.06
2023-03-17T05:25:40.530Z,100907.84
2023-03-17T05:28:07.736Z,100904.31
2023-03-17T05:30:38.159Z,100908.69
2023-03-17T05:33:05.188Z,100902.50
2023-03-17T05:35:32.265Z,100899.06
2023-03-17T05:37:58.983Z,100905.16
2023-03-17T05:40:26.362Z,100893.69
2023-03-17T05:42:52.962Z,100902.56
2023-03-17T05:45:19.503Z,100894.69
2023-03-17T05:47:46.080Z,100892.97
2023-03-17T05:50:12.938Z,100885.94
2023-03-17T05:52:40.001Z,100875.34
2023-03-17T05:55:07.869Z,100863.00
2023-03-17T05:57:34.725Z,100873.53
2023-03-17T06:00:01.518Z,100872.66
2023-03-17T06:02:28.211Z,100861.22
2023-03-17T06:04:54.769Z,100860.25
2023-03-17T06:07:21.400Z,100869.03
2023-03-17T06:09:47.935Z,100882.16
2023-03-17T06:12:14.632Z,100878.63
2023-03-17T06:14:41.210Z,100887.44
2023-03-17T06:17:08.225Z,100878.63
2023-03-17T06:19:34.871Z,100882.13
2023-03-17T06:22:01.423Z,100875.97
2023-03-17T06:24:27.953Z,100882.09
2023-03-17T06:26:56.022Z,100876.91
2023-03-17T06:29:22.701Z,100874.19
2023-03-17T06:31:51.136Z,100886.50
2023-03-17T06:34:19.025Z,100890.81
2023-03-17T06:36:51.638Z,100887.41
2023-03-17T06:39:18.163Z,100881.22
2023-03-17T06:41:44.884Z,100894.38
2023-03-17T06:44:11.408Z,100906.72
2023-03-17T06:46:37.987Z,100907.56
2023-03-17T06:49:04.710Z,100908.47
2023-03-17T06:51:32.632Z,100920.69
2023-03-17T06:53:59.279Z,100910.91
2023-03-17T06:56:30.227Z,100912.53
2023-03-17T06:58:57.562Z,100901.78
2023-03-17T07:01:25.185Z,100907.94
2023-03-17T07:03:51.782Z,100911.38
2023-03-17T07:06:18.400Z,100911.19
2023-03-17T07:08:46.315Z,100909.34
2023-03-17T07:11:12.937Z,100900.38
2023-03-17T07:13:40.799Z,100893.97
2023-03-17T07:16:08.155Z,100894.75
2023-03-17T07:18:34.776Z,100898.06
2023-03-17T07:21:02.205Z,100894.31
2023-03-17T07:23:29.792Z,100898.59
2023-03-17T07:25:57.407Z,100895.72
2023-03-17T07:28:24.325Z,100899.88
2023-03-17T07:30:51.863Z,100892.59
2023-03-17T07:33:21.118Z,100888.75
2023-03-17T07:35:48.821Z,100893.66
2023-03-17T07:38:17.763Z,100895.84
2023-03-17T07:40:47.666Z,100899.03
2023-03-17T07:43:17.727Z,100905.56
2023-03-17T07:45:45.721Z,100903.53
2023-03-17T07:48:12.995Z,100898.16
2023-03-17T07:50:39.775Z,100903.09
2023-03-17T07:53:06.303Z,100895.78
2023-03-17T07:55:33.509Z,100898.06
2023-03-17T07:58:00.237Z,100897.66
2023-03-17T08:00:29.082Z,100895.84
2023-03-17T08:03:09.342Z,100903.56
2023-03-17T08:05:37.530Z,100899.09
2023-03-17T08:08:06.626Z,100893.47
2023-03-17T08:10:33.808Z,100888.94
2023-03-17T08:13:00.779Z,100882.41
2023-03-17T08:15:27.525Z,100883.50
2023-03-17T08:17:54.138Z,100886.34
2023-03-17T08:20:21.693Z,100882.84
2023-03-17T08:22:48.291Z,100884.78
2023-03-17T08:25:14.931Z,100878.09
2023-03-17T08:27:42.216Z,100879.19
2023-03-17T08:30:09.513Z,100874.66
2023-03-17T08:32:36.549Z,100871.75
2023-03-17T08:35:03.159Z,100869.22
2023-03-17T08:37:29.701Z,100869.00
2023-03-17T08:39:56.218Z,100863.41
2023-03-17T08:42:23.424Z,100866.47
2023-03-17T08:44:50.146Z,100868.25
2023-03-17T08:47:17.549Z,100876.25
2023-03-17T08:49:44.165Z,100874.69
2023-03-17T08:52:11.125Z,100870.41
2023-03-17T08:54:38.169Z,100866.53
2023-03-17T08:57:04.777Z,100871.47
2023-03-17T08:59:31.615Z,100865.38
2023-03-17T09:01:58.224Z,100866.09
2023-03-17T09:04:25.908Z,100858.03
2023-03-17T09:07:02.802Z,100872.50
2023-03-17T09:09:31.218Z,100868.59
2023-03-17T09:11:57.839Z,100866.09
2023-03-17T09:14:25.059Z,100871.03
2023-03-17T09:16:52.198Z,100861.81
2023-03-17T09:19:18.835Z,100855.19
2023-03-17T09:21:45.675Z,100859.03
2023-03-17T09:24:12.479Z,100863.38
2023-03-17T09:26:39.091Z,100873.38
2023-03-17T09:29:07.223Z,100864.88
2023-03-17T09:31:36.328Z,100871.22
2023-03-17T09:34:06.353Z,100865.34
2023-03-17T09:36:33.138Z,100871.41
2023-03-17T09:39:02.980Z,100868.63
2023-03-17T09:42:08.114Z,100878.22
2023-03-17T09:44:55.719Z,100879.03
2023-03-17T09:47:48.759Z,100882.16
2023-03-17T09:50:24.001Z,100880.03
2023-03-17T09:52:55.255Z,100884.63
2023-03-17T09:55:32.782Z,100879.13
2023-03-17T09:58:00.897Z,100883.09
2023-03-17T10:00:31.040Z,100891.00
2023-03-17T10:02:59.064Z,100879.19
2023-03-17T10:05:30.108Z,100886.75
2023-03-17T10:08:30.043Z,100883.09
2023-03-17T10:11:24.104Z,100884.25
2023-03-17T10:14:05.705Z,100892.16
2023-03-17T10:16:51.353Z,100898.47
2023-03-17T10:19:32.650Z,100884.31
2023-03-17T10:22:10.351Z,100893.47
2023-03-17T10:24:45.978Z,100897.13
2023-03-17T10:27:16.746Z,100902.13
2023-03-17T10:29:43.795Z,100909.19
2023-03-17T10:32:13.378Z,100912.28
2023-03-17T10:34:41.737Z,100917.59
2023-03-17T10:37:15.051Z,100923.44
2023-03-17T10:39:48.295Z,100916.84
2023-03-17T10:42:23.210Z,100922.84
2023-03-17T10:45:13.263Z,100920.94
2023-03-17T10:47:44.641Z,100938.69
2023-03-17T10:50:26.209Z,100935.94
2023-03-17T10:53:00.813Z,100932.97
2023-03-17T10:55:42.533Z,100927.72
2023-03-17T10:58:22.640Z,100919.97
2023-03-17T11:01:05.785Z,100916.94
2023-03-17T11:03:38.834Z,100910.03
2023-03-17T11:06:13.052Z,100904.75
2023-03-17T11:08:46.226Z,100897.78
2023-03-17T11:11:28.150Z,100898.94
2023-03-17T11:14:15.344Z,100887.72
2023-03-17T11:16:57.729Z,100888.31
2023-03-17T11:19:48.594Z,100884.84
2023-03-17T11:22:22.957Z,100881.75
2023-03-17T11:25:11.336Z,100892.81
2023-03-17T11:27:56.673Z,100887.25
2023-03-17T11:30:59.852Z,100879.78
2023-03-17T11:33:36.112Z,100876.31
2023-03-17T11:36:44.617Z,100858.50
2023-03-17T11:39:15.581Z,100864.19
2023-03-17T11:42:08.258Z,100855.81
2023-03-17T11:45:06.754Z,100862.84
2023-03-17T11:47:54.831Z,100872.06
2023-03-17T11:50:55.364Z,100868.78
2023-03-17T11:53:43.466Z,100874.16
2023-03-17T11:56:20.711Z,100861.38
2023-03-17T11:58:56.336Z,100869.16
2023-03-17T12:01:45.703Z,100872.34
2023-03-17T12:04:34.875Z,100875.53
2023-03-17T12:07:25.737Z,100878.69
2023-03-17T12:10:28.728Z,100887.84
2023-03-17T12:12:59.620Z,100880.63
2023-03-17T12:15:34.653Z,100862.06
2023-03-17T12:18:10.846Z,100856.59
2023-03-17T12:20:48.799Z,100849.47
2023-03-17T12:23:48.162Z,100843.69
2023-03-17T12:26:21.105Z,100834.66
2023-03-17T12:29:05.590Z,100840.44
2023-03-17T12:31:39.011Z,100835.78
2023-03-17T12:34:20.361Z,100824.66
2023-03-17T12:36:49.548Z,100825.53
2023-03-17T12:39:29.047Z,100825.63
2023-03-17T12:41:59.638Z,100817.63
2023-03-17T12:44:43.304Z,100820.47
2023-03-17T12:47:39.553Z,100816.13
2023-03-17T12:50:12.857Z,100820.47
2023-03-17T12:53:17.124Z,100813.34
2023-03-17T12:55:50.555Z,100823.53
2023-03-17T12:58:27.105Z,100820.06
2023-03-17T13:01:17.384Z,100821.97
2023-03-17T13:04:16.759Z,100822.06
2023-03-17T13:07:00.118Z,100819.97
2023-03-17T13:09:32.409Z,100829.75
2023-03-17T13:12:04.848Z,100832.84
2023-03-17T13:14:46.938Z,100831.09
2023-03-17T13:17:16.838Z,100839.06
2023-03-17T13:20:08.104Z,100836.94
2023-03-17T13:22:37.524Z,100839.75
2023-03-17T13:25:34.862Z,100833.78
2023-03-17T13:28:13.594Z,100828.00
2023-03-17T13:30:40.188Z,100832.34
2023-03-17T13:33:09.799Z,100833.13
2023-03-17T13:35:47.625Z,100829.84
2023-03-17T13:38:37.633Z,100838.69
2023-03-17T13:41:06.866Z,100828.00
2023-03-17T13:43:36.468Z,100829.06
2023-03-17T13:46:32.467Z,100829.28
2023-03-17T13:49:13.070Z,100832.84
2023-03-17T13:51:52.789Z,100814.88
2023-03-17T13:54:28.400Z,100820.03
2023-03-17T13:56:59.490Z,100803.25
2023-03-17T13:59:55.638Z,100804.38
2023-03-17T14:02:28.925Z,100802.75
2023-03-17T14:05:00.449Z,100804.56
2023-03-17T14:07:41.871Z,100806.97
2023-03-17T14:10:19.688Z,100805.25
2023-03-17T14:13:16.852Z,100813.31
2023-03-17T14:16:12.263Z,100813.22
2023-03-17T14:18:44.071Z,100812.38
2023-03-17T14:21:31.047Z,100816.00
2023-03-17T14:24:01.387Z,100812.38
2023-03-17T14:26:31.198Z,100810.72
2023-03-17T14:29:04.707Z,100801.69
2023-03-17T14:31:31.637Z,100800.81
2023-03-17T14:34:00.855Z,100794.41
2023-03-17T14:36:28.914Z,100792.38
2023-03-17T14:38:57.083Z,100793.91
2023-03-17T14:41:28.832Z,100788.34
2023-03-17T14:44:00.705Z,100792.28
2023-03-17T14:46:36.972Z,100785.16
2023-03-17T14:49:15.852Z,100783.16
2023-03-17T14:51:43.009Z,100784.97
2023-03-17T14:54:28.506Z,100784.28
2023-03-17T14:57:02.254Z,100777.97
2023-03-17T14:59:35.994Z,100766.56
2023-03-17T15:02:32.237Z,100762.31
2023-03-17T15:05:12.994Z,100770.28
2023-03-17T15:07:42.391Z,100771.25
2023-03-17T15:10:19.221Z,100777.69
2023-03-17T15:12:48.437Z,100773.94
2023-03-17T15:15:32.548Z,100768.97
2023-03-17T15:18:03.859Z,100770.78
2023-03-17T15:20:33.720Z,100769.03
2023-03-17T15:23:22.149Z,100767.22
2023-03-17T15:25:55.569Z,100763.56
2023-03-17T15:28:29.697Z,100759.72
2023-03-17T15:31:11.298Z,100755.38
2023-03-17T15:33:41.137Z,100750.88
2023-03-17T15:36:29.328Z,100754.25
2023-03-17T15:38:57.702Z,100752.41
2023-03-17T15:41:24.324Z,100741.75
2023-03-17T15:43:50.866Z,100743.41
2023-03-17T15:46:27.776Z,100744.44
2023-03-17T15:48:54.903Z,100740.81
2023-03-17T15:51:21.982Z,100738.50
2023-03-17T15:53:48.641Z,100744.94
2023-03-17T15:56:21.395Z,100743.22
2023-03-17T15:58:52.433Z,100737.91
2023-03-17T16:01:20.610Z,100739.94
2023-03-17T16:03:48.640Z,100740.22
2023-03-17T16:06:21.534Z,100731.38
2023-03-17T16:09:05.469Z,100736.09
2023-03-17T16:11:32.383Z,100728.00
2023-03-17T16:14:00.058Z,100740.72
2023-03-17T16:16:32.004Z,100734.66
2023-03-17T16:18:58.968Z,100734.66
2023-03-17T16:21:25.763Z,100737.34
2023-03-17T16:23:52.619Z,100735.88
2023-03-17T16:26:19.218Z,100743.06
2023-03-17T16:28:47.655Z,100749.63
2023-03-17T16:31:22.139Z,100742.41
2023-03-17T16:33:51.399Z,100750.66
2023-03-17T16:36:21.756Z,100746.34
2023-03-17T16:38:49.551Z,100760.81
2023-03-17T16:41:20.450Z,100744.91
2023-03-17T16:43:51.327Z,100744.16
2023-03-17T16:46:20.702Z,100748.78
2023-03-17T16:48:49.489Z,100745.50
2023-03-17T16:51:16.981Z,100752.00
2023-03-17T16:53:43.894Z,100767.66
2023-03-17T16:56:17.301Z,100762.44
2023-03-17T16:58:45.794Z,100758.19
2023-03-17T17:01:16.650Z,100759.34
2023-03-17T17:03:45.259Z,100765.94
2023-03-17T17:06:14.550Z,100773.50
2023-03-17T17:08:43.031Z,100773.75
2023-03-17T17:11:13.124Z,100770.50
2023-03-17T17:13:41.376Z,100773.50
2023-03-17T17:16:20.886Z,100771.13
2023-03-17T17:18:47.555Z,100775.63
2023-03-17T17:21:14.549Z,100766.88
2023-03-17T17:23:41.260Z,100762.66
2023-03-17T17:26:07.807Z,100761.06
2023-03-17T17:28:34.514Z,100763.34
2023-03-17T17:31:01.092Z,100770.59
2023-03-17T17:33:27.663Z,100762.03
2023-03-17T17:35:54.506Z,100778.41
2023-03-17T17:38:28.862Z,100780.38
2023-03-17T17:40:58.012Z,100784.28
2023-03-17T17:43:25.851Z,100777.31
2023-03-17T17:45:53.184Z,100778.34
2023-03-17T17:48:26.286Z,100778.59
2023-03-17T17:50:55.280Z,100774.34
2023-03-17T17:53:21.892Z,100769.34
2023-03-17T17:55:49.961Z,100770.38
2023-03-17T17:58:19.334Z,100775.09
2023-03-17T18:00:46.810Z,100776.91
2023-03-17T18:03:13.382Z,100773.47
2023-03-17T18:05:40.443Z,100771.03
2023-03-17T18:08:08.373Z,100772.13
2023-03-17T18:10:35.130Z,100765.31
2023-03-17T18:13:01.761Z,100769.97
2023-03-17T18:15:28.885Z,100768.28
2023-03-17T18:17:56.364Z,100765.88
2023-03-17T18:20:25.258Z,100765.16
2023-03-17T18:22:52.876Z,100766.13
2023-03-17T18:25:20.205Z,100768.97
2023-03-17T18:27:47.834Z,100768.19
2023-03-17T18:30:23.372Z,100768.28
2023-03-17T18:32:54.902Z,100769.28
2023-03-17T18:35:27.010Z,100761.41
2023-03-17T18:37:56.356Z,100781.13
2023-03-17T18:40:23.413Z,100783.09
2023-03-17T18:42:49.979Z,100776.16
2023-03-17T18:45:16.992Z,100776.16
2023-03-17T18:47:43.646Z,100772.69
2023-03-17T18:50:13.752Z,100770.19
2023-03-17T18:52:42.828Z,100771.22
2023-03-17T18:55:12.005Z,100763.31
2023-03-17T18:57:44.640Z,100772.22
2023-03-17T19:00:13.883Z,100776.03
2023-03-17T19:02:40.509Z,100767.13
2023-03-17T19:05:07.552Z,100768.28
2023-03-17T19:07:37.954Z,100777.19
2023-03-17T19:10:08.388Z,100778.06
2023-03-17T19:12:35.349Z,100770.09
2023-03-17T19:15:01.933Z,100772.00
2023-03-17T19:17:28.676Z,100777.28
2023-03-17T19:19:55.373Z,100774.66
2023-03-17T19:22:22.175Z,100770.19
2023-03-17T19:24:50.194Z,100768.56
2023-03-17T19:27:17.688Z,100770.50
2023-03-17T19:29:44.443Z,100769.72
2023-03-17T19:32:11.098Z,100774.13
2023-03-17T19:34:37.739Z,100770.59
2023-03-17T19:37:04.385Z,100767.91
2023-03-17T19:39:32.100Z,100764.38
2023-03-17T19:41:59.156Z,100770.59
2023-03-17T19:44:26.389Z,100765.38
2023-03-17T19:46:53.090Z,100766.16
2023-03-17T19:49:21.043Z,100766.31
2023-03-17T19:51:48.960Z,100779.69
2023-03-17T19:54:16.658Z,100773.63
2023-03-17T19:56:43.255Z,100768.50
2023-03-17T19:59:10.218Z,100775.50
2023-03-17T20:01:38.174Z,100776.53
2023-03-17T20:04:06.834Z,100775.50
2023-03-17T20:06:34.732Z,100780.06
2023-03-17T20:09:04.206Z,100779.13
2023-03-17T20:11:33.892Z,100775.59
2023-03-17T20:14:02.358Z,100778.41
2023-03-17T20:16:35.987Z,100790.91
2023-03-17T20:19:03.821Z,100789.19
2023-03-17T20:21:31.188Z,100792.84
2023-03-17T20:23:57.954Z,100785.75
2023-03-17T20:26:24.586Z,100788.41
2023-03-17T20:28:51.586Z,100785.81
2023-03-17T20:31:18.612Z,100786.69
2023-03-17T20:33:45.280Z,100800.06
2023-03-17T20:36:12.925Z,100797.22
2023-03-17T20:38:39.898Z,100800.75
2023-03-17T20:41:08.197Z,100800.69
2023-03-17T20:43:37.238Z,100808.72
2023-03-17T20:46:08.943Z,100801.63
2023-03-17T20:48:37.079Z,100811.41
2023-03-17T20:51:05.581Z,100814.78
2023-03-17T20:53:33.217Z,100821.22
2023-03-17T20:56:00.254Z,100826.44
2023-03-17T20:58:27.755Z,100824.78
2023-03-17T21:00:55.113Z,100822.97
2023-03-17T21:03:21.739Z,100829.13
2023-03-17T21:05:48.297Z,100830.06
2023-03-17T21:08:14.871Z,100834.53
2023-03-17T21:10:41.736Z,100837.28
2023-03-17T21:13:08.910Z,100834.63
2023-03-17T21:15:37.063Z,100839.03
2023-03-17T21:18:04.044Z,100833.13
2023-03-17T21:20:31.045Z,100842.97
2023-03-17T21:22:57.988Z,100848.31
2023-03-17T21:25:24.588Z,100849.25
2023-03-17T21:27:52.265Z,100852.72
2023-03-17T21:30:18.890Z,100852.00
2023-03-17T21:32:45.520Z,100854.75
2023-03-17T21:35:12.222Z,100855.63
2023-03-17T21:37:38.853Z,100859.31
2023-03-17T21:40:06.711Z,100845.78
2023-03-17T21:42:33.808Z,100853.09
2023-03-17T21:45:00.562Z,100856.88
2023-03-17T21:47:27.313Z,100855.94
2023-03-17T21:49:53.930Z,100855.22
2023-03-17T21:52:21.606Z,100855.28
2023-03-17T21:54:48.809Z,100857.09
2023-03-17T21:57:16.592Z,100863.38
2023-03-17T21:59:43.268Z,100879.28
2023-03-17T22:02:13.672Z,100865.97
2023-03-17T22:04:41.685Z,100859.75
2023-03-17T22:07:08.445Z,100852.84
2023-03-17T22:09:35.035Z,100859.06
2023-03-17T22:12:01.711Z,100854.72
2023-03-17T22:14:28.431Z,100869.03
2023-03-17T22:16:55.168Z,100867.22
2023-03-17T22:19:22.501Z,100866.50
2023-03-17T22:21:50.369Z,100857.78
2023-03-17T22:24:17.517Z,100849.81
2023-03-17T22:26:44.274Z,100863.31
2023-03-17T22:29:10.862Z,100873.16
2023-03-17T22:31:37.511Z,100882.19
2023-03-17T22:34:04.312Z,100889.41
2023-03-17T22:36:31.166Z,100890.44
2023-03-17T22:38:58.862Z,100888.84
2023-03-17T22:41:29.529Z,100899.53
2023-03-17T22:44:04.230Z,100902.41
2023-03-17T22:46:30.795Z,100899.97
2023-03-17T22:48:57.448Z,100896.44
2023-03-17T22:51:26.754Z,100895.75
2023-03-17T22:53:55.676Z,100896.72
2023-03-17T22:56:22.902Z,100891.38
2023-03-17T22:58:49.547Z,100896.84
2023-03-17T23:01:18.160Z,100896.72
2023-03-17T23:03:46.961Z,100903.06
2023-03-17T23:06:14.871Z,100900.41
2023-03-17T23:08:46.446Z,100906.75
2023-03-17T23:11:19.382Z,100908.75
2023-03-17T23:13:48.224Z,100905.06
2023-03-17T23:16:18.212Z,100910.47
2023-03-17T23:18:46.783Z,100908.63
2023-03-17T23:21:30.463Z,100904.25
2023-03-17T23:23:57.797Z,100900.09
2023-03-17T23:26:24.347Z,100901.13
2023-03-17T23:28:51.842Z,100916.53
2023-03-17T23:31:19.497Z,100908.00
2023-03-17T23:33:47.229Z,100912.53
2023-03-17T23:36:15.077Z,100908.25
2023-03-17T23:38:42.732Z,100906.72
2023-03-17T23:41:10.313Z,100891.63
2023-03-17T23:43:39.093Z,100887.38
2023-03-17T23:46:05.741Z,100886.72
2023-03-17T23:48:36.461Z,100893.13
2023-03-17T23:51:03.392Z,100894.13
2023-03-17T23:53:30.092Z,100892.66
2023-03-17T23:55:56.784Z,100894.56
2023-03-17T23:58:23.508Z,100898.41
